sensor_id;sensor_type;location;lat;lon;timestamp;temperature;humidity
21439;DHT22;10880;50.302;18.736;2022-08-01T00:00:47;20.30;62.70
21439;DHT22;10880;50.302;18.736;2022-08-01T00:03:13;20.20;62.50
21439;DHT22;10880;50.302;18.736;2022-08-01T00:05:40;20.20;62.80
21439;DHT22;10880;50.302;18.736;2022-08-01T00:08:09;20.40;63.00
21439;DHT22;10880;50.302;18.736;2022-08-01T00:10:36;20.20;62.80
21439;DHT22;10880;50.302;18.736;2022-08-01T00:13:03;20.20;62.60
21439;DHT22;10880;50.302;18.736;2022-08-01T00:15:29;20.10;62.60
21439;DHT22;10880;50.302;18.736;2022-08-01T00:17:57;20.10;62.80
21439;DHT22;10880;50.302;18.736;2022-08-01T00:20:23;20.10;62.60
21439;DHT22;10880;50.302;18.736;2022-08-01T00:22:50;20.00;62.80
21439;DHT22;10880;50.302;18.736;2022-08-01T00:25:19;20.00;62.50
21439;DHT22;10880;50.302;18.736;2022-08-01T00:27:47;20.00;63.00
21439;DHT22;10880;50.302;18.736;2022-08-01T00:30:14;20.00;62.40
21439;DHT22;10880;50.302;18.736;2022-08-01T00:32:44;19.90;62.50
21439;DHT22;10880;50.302;18.736;2022-08-01T00:35:11;19.90;62.90
21439;DHT22;10880;50.302;18.736;2022-08-01T00:37:37;19.90;62.30
21439;DHT22;10880;50.302;18.736;2022-08-01T00:40:05;19.90;62.60
21439;DHT22;10880;50.302;18.736;2022-08-01T00:42:34;19.80;62.80
21439;DHT22;10880;50.302;18.736;2022-08-01T00:45:00;19.80;63.20
21439;DHT22;10880;50.302;18.736;2022-08-01T00:47:27;19.80;62.50
21439;DHT22;10880;50.302;18.736;2022-08-01T00:49:54;19.70;62.40
21439;DHT22;10880;50.302;18.736;2022-08-01T00:52:21;19.70;62.30
21439;DHT22;10880;50.302;18.736;2022-08-01T00:54:48;19.70;62.40
21439;DHT22;10880;50.302;18.736;2022-08-01T00:57:18;19.70;62.60
21439;DHT22;10880;50.302;18.736;2022-08-01T00:59:45;19.60;62.50
21439;DHT22;10880;50.302;18.736;2022-08-01T01:02:11;19.60;62.30
21439;DHT22;10880;50.302;18.736;2022-08-01T01:04:38;19.60;62.80
21439;DHT22;10880;50.302;18.736;2022-08-01T01:10:22;19.60;62.80
21439;DHT22;10880;50.302;18.736;2022-08-01T01:13:08;19.60;62.80
21439;DHT22;10880;50.302;18.736;2022-08-01T01:16:00;19.60;62.60
21439;DHT22;10880;50.302;18.736;2022-08-01T01:18:47;19.50;62.70
21439;DHT22;10880;50.302;18.736;2022-08-01T01:24:27;19.40;62.40
21439;DHT22;10880;50.302;18.736;2022-08-01T01:27:21;19.50;62.60
21439;DHT22;10880;50.302;18.736;2022-08-01T01:29:56;19.40;62.50
21439;DHT22;10880;50.302;18.736;2022-08-01T01:34:56;19.40;62.60
21439;DHT22;10880;50.302;18.736;2022-08-01T01:37:26;19.30;62.50
21439;DHT22;10880;50.302;18.736;2022-08-01T01:39:53;19.30;62.50
21439;DHT22;10880;50.302;18.736;2022-08-01T01:42:20;19.30;62.60
21439;DHT22;10880;50.302;18.736;2022-08-01T01:44:48;19.30;62.50
21439;DHT22;10880;50.302;18.736;2022-08-01T01:47:17;19.20;62.50
21439;DHT22;10880;50.302;18.736;2022-08-01T01:49:47;19.20;62.40
21439;DHT22;10880;50.302;18.736;2022-08-01T01:52:18;19.20;62.60
21439;DHT22;10880;50.302;18.736;2022-08-01T01:54:50;19.20;62.60
21439;DHT22;10880;50.302;18.736;2022-08-01T01:57:22;18.90;62.30
21439;DHT22;10880;50.302;18.736;2022-08-01T01:59:51;19.20;62.50
21439;DHT22;10880;50.302;18.736;2022-08-01T02:02:23;19.20;62.70
21439;DHT22;10880;50.302;18.736;2022-08-01T02:04:50;19.10;62.50
21439;DHT22;10880;50.302;18.736;2022-08-01T02:07:23;19.10;62.50
21439;DHT22;10880;50.302;18.736;2022-08-01T02:09:52;19.10;62.50
21439;DHT22;10880;50.302;18.736;2022-08-01T02:12:20;19.10;62.50
21439;DHT22;10880;50.302;18.736;2022-08-01T02:14:53;19.00;62.30
21439;DHT22;10880;50.302;18.736;2022-08-01T02:17:23;19.00;62.50
21439;DHT22;10880;50.302;18.736;2022-08-01T02:19:51;19.10;62.50
21439;DHT22;10880;50.302;18.736;2022-08-01T02:22:27;19.00;62.30
21439;DHT22;10880;50.302;18.736;2022-08-01T02:27:50;19.00;62.40
21439;DHT22;10880;50.302;18.736;2022-08-01T02:30:19;19.00;62.40
21439;DHT22;10880;50.302;18.736;2022-08-01T02:32:48;19.00;62.30
21439;DHT22;10880;50.302;18.736;2022-08-01T02:35:31;18.90;62.30
21439;DHT22;10880;50.302;18.736;2022-08-01T02:38:01;18.90;62.20
21439;DHT22;10880;50.302;18.736;2022-08-01T02:40:38;18.90;62.30
21439;DHT22;10880;50.302;18.736;2022-08-01T02:43:09;18.90;62.30
21439;DHT22;10880;50.302;18.736;2022-08-01T02:45:44;18.90;62.90
21439;DHT22;10880;50.302;18.736;2022-08-01T02:48:14;18.90;62.30
21439;DHT22;10880;50.302;18.736;2022-08-01T02:50:44;18.90;62.20
21439;DHT22;10880;50.302;18.736;2022-08-01T02:53:13;18.80;62.30
21439;DHT22;10880;50.302;18.736;2022-08-01T02:55:41;18.80;62.30
21439;DHT22;10880;50.302;18.736;2022-08-01T02:58:12;18.80;62.30
21439;DHT22;10880;50.302;18.736;2022-08-01T03:00:42;18.80;62.50
21439;DHT22;10880;50.302;18.736;2022-08-01T03:03:14;18.80;62.50
21439;DHT22;10880;50.302;18.736;2022-08-01T03:05:44;18.80;62.50
21439;DHT22;10880;50.302;18.736;2022-08-01T03:08:11;18.80;62.60
21439;DHT22;10880;50.302;18.736;2022-08-01T03:10:42;18.80;62.50
21439;DHT22;10880;50.302;18.736;2022-08-01T03:13:11;18.80;62.60
21439;DHT22;10880;50.302;18.736;2022-08-01T03:15:39;18.80;62.60
21439;DHT22;10880;50.302;18.736;2022-08-01T03:18:10;18.80;62.60
21439;DHT22;10880;50.302;18.736;2022-08-01T03:20:37;18.80;62.60
21439;DHT22;10880;50.302;18.736;2022-08-01T03:23:09;18.80;62.60
21439;DHT22;10880;50.302;18.736;2022-08-01T03:25:44;18.80;62.60
21439;DHT22;10880;50.302;18.736;2022-08-01T03:28:13;18.90;62.80
21439;DHT22;10880;50.302;18.736;2022-08-01T03:30:41;18.80;62.70
21439;DHT22;10880;50.302;18.736;2022-08-01T03:33:10;18.80;62.80
21439;DHT22;10880;50.302;18.736;2022-08-01T03:35:45;18.80;62.40
21439;DHT22;10880;50.302;18.736;2022-08-01T03:38:13;18.90;62.90
21439;DHT22;10880;50.302;18.736;2022-08-01T03:41:09;18.90;62.90
21439;DHT22;10880;50.302;18.736;2022-08-01T03:43:46;18.90;63.00
21439;DHT22;10880;50.302;18.736;2022-08-01T03:46:22;18.90;63.00
21439;DHT22;10880;50.302;18.736;2022-08-01T03:48:53;18.90;62.90
21439;DHT22;10880;50.302;18.736;2022-08-01T03:51:22;18.90;62.90
21439;DHT22;10880;50.302;18.736;2022-08-01T03:53:50;18.90;62.70
21439;DHT22;10880;50.302;18.736;2022-08-01T03:56:19;18.90;62.90
21439;DHT22;10880;50.302;18.736;2022-08-01T03:58:49;18.90;62.90
21439;DHT22;10880;50.302;18.736;2022-08-01T04:01:17;18.90;63.00
21439;DHT22;10880;50.302;18.736;2022-08-01T04:03:46;18.90;62.70
21439;DHT22;10880;50.302;18.736;2022-08-01T04:06:14;18.90;62.90
21439;DHT22;10880;50.302;18.736;2022-08-01T04:08:41;18.90;62.60
21439;DHT22;10880;50.302;18.736;2022-08-01T04:11:08;18.90;62.20
21439;DHT22;10880;50.302;18.736;2022-08-01T04:13:37;18.90;63.00
21439;DHT22;10880;50.302;18.736;2022-08-01T04:16:04;18.90;62.40
21439;DHT22;10880;50.302;18.736;2022-08-01T04:18:30;18.90;62.60
21439;DHT22;10880;50.302;18.736;2022-08-01T04:20:57;18.90;62.50
21439;DHT22;10880;50.302;18.736;2022-08-01T04:23:24;18.90;62.50
21439;DHT22;10880;50.302;18.736;2022-08-01T04:25:54;18.90;63.20
21439;DHT22;10880;50.302;18.736;2022-08-01T04:28:23;19.00;63.40
21439;DHT22;10880;50.302;18.736;2022-08-01T04:30:54;19.00;63.50
21439;DHT22;10880;50.302;18.736;2022-08-01T04:33:25;19.00;63.50
21439;DHT22;10880;50.302;18.736;2022-08-01T04:35:52;19.00;63.60
21439;DHT22;10880;50.302;18.736;2022-08-01T04:38:21;19.00;63.00
21439;DHT22;10880;50.302;18.736;2022-08-01T04:40:50;19.10;63.70
21439;DHT22;10880;50.302;18.736;2022-08-01T04:43:19;19.10;63.80
21439;DHT22;10880;50.302;18.736;2022-08-01T04:45:48;19.10;63.80
21439;DHT22;10880;50.302;18.736;2022-08-01T04:48:17;19.10;63.90
21439;DHT22;10880;50.302;18.736;2022-08-01T04:50:46;19.20;63.80
21439;DHT22;10880;50.302;18.736;2022-08-01T04:53:18;19.20;63.60
21439;DHT22;10880;50.302;18.736;2022-08-01T04:55:45;19.20;64.20
21439;DHT22;10880;50.302;18.736;2022-08-01T04:58:14;19.30;64.20
21439;DHT22;10880;50.302;18.736;2022-08-01T05:00:41;19.30;64.40
21439;DHT22;10880;50.302;18.736;2022-08-01T05:03:07;19.30;63.90
21439;DHT22;10880;50.302;18.736;2022-08-01T05:05:34;19.40;64.20
21439;DHT22;10880;50.302;18.736;2022-08-01T05:08:00;19.40;64.20
21439;DHT22;10880;50.302;18.736;2022-08-01T05:10:27;19.50;64.20
21439;DHT22;10880;50.302;18.736;2022-08-01T05:12:54;19.50;64.40
21439;DHT22;10880;50.302;18.736;2022-08-01T05:15:20;19.60;64.30
21439;DHT22;10880;50.302;18.736;2022-08-01T05:17:47;19.60;64.70
21439;DHT22;10880;50.302;18.736;2022-08-01T05:20:13;19.60;64.40
21439;DHT22;10880;50.302;18.736;2022-08-01T05:22:40;19.70;64.50
21439;DHT22;10880;50.302;18.736;2022-08-01T05:25:06;19.70;64.60
21439;DHT22;10880;50.302;18.736;2022-08-01T05:27:33;19.70;64.50
21439;DHT22;10880;50.302;18.736;2022-08-01T05:30:07;19.80;65.10
21439;DHT22;10880;50.302;18.736;2022-08-01T05:32:38;19.80;65.50
21439;DHT22;10880;50.302;18.736;2022-08-01T05:35:05;19.90;65.40
21439;DHT22;10880;50.302;18.736;2022-08-01T05:37:34;19.90;65.70
21439;DHT22;10880;50.302;18.736;2022-08-01T05:40:01;20.00;65.70
21439;DHT22;10880;50.302;18.736;2022-08-01T05:42:27;20.00;65.10
21439;DHT22;10880;50.302;18.736;2022-08-01T05:44:53;20.10;65.30
21439;DHT22;10880;50.302;18.736;2022-08-01T05:47:20;20.10;65.40
21439;DHT22;10880;50.302;18.736;2022-08-01T05:49:46;20.20;65.40
21439;DHT22;10880;50.302;18.736;2022-08-01T05:52:15;20.20;66.10
21439;DHT22;10880;50.302;18.736;2022-08-01T05:54:41;20.20;65.70
21439;DHT22;10880;50.302;18.736;2022-08-01T05:57:07;20.30;65.80
21439;DHT22;10880;50.302;18.736;2022-08-01T05:59:34;20.40;65.70
21439;DHT22;10880;50.302;18.736;2022-08-01T06:02:00;20.40;65.90
21439;DHT22;10880;50.302;18.736;2022-08-01T06:04:27;20.40;66.00
21439;DHT22;10880;50.302;18.736;2022-08-01T06:06:53;20.50;65.80
21439;DHT22;10880;50.302;18.736;2022-08-01T06:09:21;20.50;66.70
21439;DHT22;10880;50.302;18.736;2022-08-01T06:11:50;20.60;66.70
21439;DHT22;10880;50.302;18.736;2022-08-01T06:14:17;20.60;66.70
21439;DHT22;10880;50.302;18.736;2022-08-01T06:16:43;20.70;66.50
21439;DHT22;10880;50.302;18.736;2022-08-01T06:19:10;20.70;67.00
21439;DHT22;10880;50.302;18.736;2022-08-01T06:21:36;20.80;66.30
21439;DHT22;10880;50.302;18.736;2022-08-01T06:24:03;20.90;66.60
21439;DHT22;10880;50.302;18.736;2022-08-01T06:26:29;21.00;68.30
21439;DHT22;10880;50.302;18.736;2022-08-01T06:28:55;21.10;68.00
21439;DHT22;10880;50.302;18.736;2022-08-01T06:31:22;21.30;68.30
21439;DHT22;10880;50.302;18.736;2022-08-01T06:33:49;21.40;67.80
21439;DHT22;10880;50.302;18.736;2022-08-01T06:36:15;21.60;67.90
21439;DHT22;10880;50.302;18.736;2022-08-01T06:38:41;21.70;67.60
21439;DHT22;10880;50.302;18.736;2022-08-01T06:41:08;21.90;67.60
21439;DHT22;10880;50.302;18.736;2022-08-01T06:43:34;22.00;67.50
21439;DHT22;10880;50.302;18.736;2022-08-01T06:46:01;22.20;67.10
21439;DHT22;10880;50.302;18.736;2022-08-01T06:48:29;22.30;67.20
21439;DHT22;10880;50.302;18.736;2022-08-01T06:50:56;22.40;67.30
21439;DHT22;10880;50.302;18.736;2022-08-01T06:53:36;22.50;66.90
21439;DHT22;10880;50.302;18.736;2022-08-01T06:56:04;22.60;66.50
21439;DHT22;10880;50.302;18.736;2022-08-01T06:58:31;22.70;66.10
21439;DHT22;10880;50.302;18.736;2022-08-01T07:00:58;22.80;65.90
21439;DHT22;10880;50.302;18.736;2022-08-01T07:03:24;22.80;65.10
21439;DHT22;10880;50.302;18.736;2022-08-01T07:05:50;22.80;64.80
21439;DHT22;10880;50.302;18.736;2022-08-01T07:08:17;22.90;64.70
21439;DHT22;10880;50.302;18.736;2022-08-01T07:10:43;22.90;64.90
21439;DHT22;10880;50.302;18.736;2022-08-01T07:13:10;22.90;64.60
21439;DHT22;10880;50.302;18.736;2022-08-01T07:15:38;23.00;64.90
21439;DHT22;10880;50.302;18.736;2022-08-01T07:18:06;23.00;64.60
21439;DHT22;10880;50.302;18.736;2022-08-01T07:20:32;23.10;65.20
21439;DHT22;10880;50.302;18.736;2022-08-01T07:22:59;23.10;64.80
21439;DHT22;10880;50.302;18.736;2022-08-01T07:25:25;23.10;64.60
21439;DHT22;10880;50.302;18.736;2022-08-01T07:27:52;23.20;64.60
21439;DHT22;10880;50.302;18.736;2022-08-01T07:30:20;23.20;64.70
21439;DHT22;10880;50.302;18.736;2022-08-01T07:32:47;23.30;65.00
21439;DHT22;10880;50.302;18.736;2022-08-01T07:35:13;23.30;65.00
21439;DHT22;10880;50.302;18.736;2022-08-01T07:37:40;23.40;65.20
21439;DHT22;10880;50.302;18.736;2022-08-01T07:40:06;23.40;64.70
21439;DHT22;10880;50.302;18.736;2022-08-01T07:42:33;23.50;65.50
21439;DHT22;10880;50.302;18.736;2022-08-01T07:44:59;23.50;64.90
21439;DHT22;10880;50.302;18.736;2022-08-01T07:47:26;23.60;64.90
21439;DHT22;10880;50.302;18.736;2022-08-01T07:49:59;23.70;65.10
21439;DHT22;10880;50.302;18.736;2022-08-01T07:52:26;23.70;65.10
21439;DHT22;10880;50.302;18.736;2022-08-01T07:54:53;23.80;64.90
21439;DHT22;10880;50.302;18.736;2022-08-01T07:57:19;23.90;64.60
21439;DHT22;10880;50.302;18.736;2022-08-01T07:59:47;23.90;64.20
21439;DHT22;10880;50.302;18.736;2022-08-01T08:02:13;24.00;64.40
21439;DHT22;10880;50.302;18.736;2022-08-01T08:04:40;24.00;64.10
21439;DHT22;10880;50.302;18.736;2022-08-01T08:07:07;24.10;64.40
21439;DHT22;10880;50.302;18.736;2022-08-01T08:09:33;24.10;63.90
21439;DHT22;10880;50.302;18.736;2022-08-01T08:12:00;24.20;64.10
21439;DHT22;10880;50.302;18.736;2022-08-01T08:14:28;24.20;63.80
21439;DHT22;10880;50.302;18.736;2022-08-01T08:16:55;24.20;64.10
21439;DHT22;10880;50.302;18.736;2022-08-01T08:19:21;24.20;63.70
21439;DHT22;10880;50.302;18.736;2022-08-01T08:21:47;24.30;63.60
21439;DHT22;10880;50.302;18.736;2022-08-01T08:24:14;24.40;63.40
21439;DHT22;10880;50.302;18.736;2022-08-01T08:26:48;24.40;64.00
21439;DHT22;10880;50.302;18.736;2022-08-01T08:29:15;24.40;63.90
21439;DHT22;10880;50.302;18.736;2022-08-01T08:31:41;24.50;63.70
21439;DHT22;10880;50.302;18.736;2022-08-01T08:34:09;24.50;63.90
21439;DHT22;10880;50.302;18.736;2022-08-01T08:36:35;24.60;63.20
21439;DHT22;10880;50.302;18.736;2022-08-01T08:39:02;24.60;63.20
21439;DHT22;10880;50.302;18.736;2022-08-01T08:41:34;24.60;63.20
21439;DHT22;10880;50.302;18.736;2022-08-01T08:44:02;24.70;63.80
21439;DHT22;10880;50.302;18.736;2022-08-01T08:46:31;24.70;63.50
21439;DHT22;10880;50.302;18.736;2022-08-01T08:49:00;24.70;63.20
21439;DHT22;10880;50.302;18.736;2022-08-01T08:51:31;24.80;63.40
21439;DHT22;10880;50.302;18.736;2022-08-01T08:54:00;24.80;63.20
21439;DHT22;10880;50.302;18.736;2022-08-01T08:56:28;24.80;63.20
21439;DHT22;10880;50.302;18.736;2022-08-01T08:59:01;24.90;63.20
21439;DHT22;10880;50.302;18.736;2022-08-01T09:01:28;24.90;63.10
21439;DHT22;10880;50.302;18.736;2022-08-01T09:03:54;24.90;62.60
21439;DHT22;10880;50.302;18.736;2022-08-01T09:06:21;24.90;62.50
21439;DHT22;10880;50.302;18.736;2022-08-01T09:08:48;24.90;62.60
21439;DHT22;10880;50.302;18.736;2022-08-01T09:11:15;25.00;62.70
21439;DHT22;10880;50.302;18.736;2022-08-01T09:13:41;25.00;62.20
21439;DHT22;10880;50.302;18.736;2022-08-01T09:16:07;25.00;62.20
21439;DHT22;10880;50.302;18.736;2022-08-01T09:18:39;25.00;62.20
21439;DHT22;10880;50.302;18.736;2022-08-01T09:21:19;25.00;62.70
21439;DHT22;10880;50.302;18.736;2022-08-01T09:23:51;25.10;62.60
21439;DHT22;10880;50.302;18.736;2022-08-01T09:26:21;25.10;62.50
21439;DHT22;10880;50.302;18.736;2022-08-01T09:28:48;25.10;62.50
21439;DHT22;10880;50.302;18.736;2022-08-01T09:31:18;25.10;61.50
21439;DHT22;10880;50.302;18.736;2022-08-01T09:36:20;25.10;62.30
21439;DHT22;10880;50.302;18.736;2022-08-01T09:38:47;25.10;62.50
21439;DHT22;10880;50.302;18.736;2022-08-01T09:41:16;25.10;62.40
21439;DHT22;10880;50.302;18.736;2022-08-01T09:43:50;25.10;62.40
21439;DHT22;10880;50.302;18.736;2022-08-01T09:46:18;25.20;62.10
21439;DHT22;10880;50.302;18.736;2022-08-01T09:48:58;25.20;62.50
21439;DHT22;10880;50.302;18.736;2022-08-01T09:51:38;25.20;62.50
21439;DHT22;10880;50.302;18.736;2022-08-01T09:54:07;25.30;62.50
21439;DHT22;10880;50.302;18.736;2022-08-01T09:56:40;25.30;62.30
21439;DHT22;10880;50.302;18.736;2022-08-01T09:59:08;25.30;62.50
21439;DHT22;10880;50.302;18.736;2022-08-01T10:01:44;25.30;62.40
21439;DHT22;10880;50.302;18.736;2022-08-01T10:04:16;25.40;62.40
21439;DHT22;10880;50.302;18.736;2022-08-01T10:06:45;25.40;62.40
21439;DHT22;10880;50.302;18.736;2022-08-01T10:09:27;25.40;62.30
21439;DHT22;10880;50.302;18.736;2022-08-01T10:11:56;25.40;62.30
21439;DHT22;10880;50.302;18.736;2022-08-01T10:14:25;25.40;62.40
21439;DHT22;10880;50.302;18.736;2022-08-01T10:16:55;25.50;62.40
21439;DHT22;10880;50.302;18.736;2022-08-01T10:19:25;25.50;63.20
21439;DHT22;10880;50.302;18.736;2022-08-01T10:21:56;25.50;62.20
21439;DHT22;10880;50.302;18.736;2022-08-01T10:24:27;25.60;62.30
21439;DHT22;10880;50.302;18.736;2022-08-01T10:27:03;25.50;62.00
21439;DHT22;10880;50.302;18.736;2022-08-01T10:29:35;25.60;62.20
21439;DHT22;10880;50.302;18.736;2022-08-01T10:32:06;25.60;62.10
21439;DHT22;10880;50.302;18.736;2022-08-01T10:34:37;25.60;62.00
21439;DHT22;10880;50.302;18.736;2022-08-01T10:37:05;25.70;61.90
21439;DHT22;10880;50.302;18.736;2022-08-01T10:39:35;25.70;62.00
21439;DHT22;10880;50.302;18.736;2022-08-01T10:42:02;25.70;61.50
21439;DHT22;10880;50.302;18.736;2022-08-01T10:44:31;25.80;61.90
21439;DHT22;10880;50.302;18.736;2022-08-01T10:47:26;25.80;62.00
21439;DHT22;10880;50.302;18.736;2022-08-01T10:50:13;25.90;62.00
21439;DHT22;10880;50.302;18.736;2022-08-01T10:53:12;25.90;61.70
21439;DHT22;10880;50.302;18.736;2022-08-01T10:56:00;25.90;61.70
21439;DHT22;10880;50.302;18.736;2022-08-01T11:01:21;25.90;61.60
21439;DHT22;10880;50.302;18.736;2022-08-01T11:04:04;25.90;61.40
21439;DHT22;10880;50.302;18.736;2022-08-01T11:09:04;25.90;60.70
21439;DHT22;10880;50.302;18.736;2022-08-01T11:12:00;25.90;61.30
21439;DHT22;10880;50.302;18.736;2022-08-01T11:14:28;25.90;61.30
21439;DHT22;10880;50.302;18.736;2022-08-01T11:16:57;26.00;61.00
21439;DHT22;10880;50.302;18.736;2022-08-01T11:20:04;25.90;61.20
21439;DHT22;10880;50.302;18.736;2022-08-01T11:22:31;25.90;61.10
21439;DHT22;10880;50.302;18.736;2022-08-01T11:24:58;25.90;60.50
21439;DHT22;10880;50.302;18.736;2022-08-01T11:27:30;25.90;61.10
21439;DHT22;10880;50.302;18.736;2022-08-01T11:32:50;25.90;60.80
21439;DHT22;10880;50.302;18.736;2022-08-01T11:35:19;26.00;61.20
21439;DHT22;10880;50.302;18.736;2022-08-01T11:37:48;25.90;61.10
21439;DHT22;10880;50.302;18.736;2022-08-01T11:40:22;25.90;60.90
21439;DHT22;10880;50.302;18.736;2022-08-01T11:45:56;26.00;60.50
21439;DHT22;10880;50.302;18.736;2022-08-01T11:48:26;26.00;61.10
21439;DHT22;10880;50.302;18.736;2022-08-01T11:50:54;26.00;61.20
21439;DHT22;10880;50.302;18.736;2022-08-01T11:53:22;26.00;61.20
21439;DHT22;10880;50.302;18.736;2022-08-01T11:55:53;26.00;61.10
21439;DHT22;10880;50.302;18.736;2022-08-01T11:58:26;26.00;61.30
21439;DHT22;10880;50.302;18.736;2022-08-01T12:00:55;26.10;61.10
21439;DHT22;10880;50.302;18.736;2022-08-01T12:03:31;26.10;61.40
21439;DHT22;10880;50.302;18.736;2022-08-01T12:05:59;26.10;61.50
21439;DHT22;10880;50.302;18.736;2022-08-01T12:08:31;26.20;61.00
21439;DHT22;10880;50.302;18.736;2022-08-01T12:11:05;26.20;61.50
21439;DHT22;10880;50.302;18.736;2022-08-01T12:13:42;26.20;61.50
21439;DHT22;10880;50.302;18.736;2022-08-01T12:16:10;26.20;61.30
21439;DHT22;10880;50.302;18.736;2022-08-01T12:18:44;26.30;61.40
21439;DHT22;10880;50.302;18.736;2022-08-01T12:21:11;26.30;61.40
21439;DHT22;10880;50.302;18.736;2022-08-01T12:23:37;26.30;60.90
21439;DHT22;10880;50.302;18.736;2022-08-01T12:26:08;26.40;61.30
21439;DHT22;10880;50.302;18.736;2022-08-01T12:28:39;26.40;61.40
21439;DHT22;10880;50.302;18.736;2022-08-01T12:31:07;26.40;61.30
21439;DHT22;10880;50.302;18.736;2022-08-01T12:33:38;26.40;60.90
21439;DHT22;10880;50.302;18.736;2022-08-01T12:36:08;26.50;60.90
21439;DHT22;10880;50.302;18.736;2022-08-01T12:38:34;26.50;60.70
21439;DHT22;10880;50.302;18.736;2022-08-01T12:41:02;26.50;60.30
21439;DHT22;10880;50.302;18.736;2022-08-01T12:43:58;26.60;61.10
21439;DHT22;10880;50.302;18.736;2022-08-01T12:46:28;26.60;61.50
21439;DHT22;10880;50.302;18.736;2022-08-01T12:48:55;26.70;61.00
21439;DHT22;10880;50.302;18.736;2022-08-01T12:51:22;26.70;61.40
21439;DHT22;10880;50.302;18.736;2022-08-01T12:53:48;26.70;60.70
21439;DHT22;10880;50.302;18.736;2022-08-01T12:56:19;26.80;61.40
21439;DHT22;10880;50.302;18.736;2022-08-01T12:58:58;26.80;62.10
21439;DHT22;10880;50.302;18.736;2022-08-01T13:01:27;26.80;60.90
21439;DHT22;10880;50.302;18.736;2022-08-01T13:04:00;26.90;60.70
21439;DHT22;10880;50.302;18.736;2022-08-01T13:06:29;26.90;60.90
21439;DHT22;10880;50.302;18.736;2022-08-01T13:09:07;26.90;61.00
21439;DHT22;10880;50.302;18.736;2022-08-01T13:12:08;26.90;61.00
21439;DHT22;10880;50.302;18.736;2022-08-01T13:15:30;27.00;61.10
21439;DHT22;10880;50.302;18.736;2022-08-01T13:18:23;27.00;60.90
21439;DHT22;10880;50.302;18.736;2022-08-01T13:24:01;27.10;60.80
21439;DHT22;10880;50.302;18.736;2022-08-01T13:29:15;27.10;60.30
21439;DHT22;10880;50.302;18.736;2022-08-01T13:31:42;27.10;60.50
21439;DHT22;10880;50.302;18.736;2022-08-01T13:34:11;27.10;60.30
21439;DHT22;10880;50.302;18.736;2022-08-01T13:36:38;27.10;60.10
21439;DHT22;10880;50.302;18.736;2022-08-01T13:39:05;27.10;60.30
21439;DHT22;10880;50.302;18.736;2022-08-01T13:41:52;27.10;60.30
21439;DHT22;10880;50.302;18.736;2022-08-01T13:44:18;27.20;60.50
21439;DHT22;10880;50.302;18.736;2022-08-01T13:46:46;27.20;60.10
21439;DHT22;10880;50.302;18.736;2022-08-01T13:49:15;27.20;60.50
21439;DHT22;10880;50.302;18.736;2022-08-01T13:51:42;27.20;60.30
21439;DHT22;10880;50.302;18.736;2022-08-01T13:54:08;27.20;60.00
21439;DHT22;10880;50.302;18.736;2022-08-01T13:56:35;27.20;60.00
21439;DHT22;10880;50.302;18.736;2022-08-01T13:59:02;27.20;60.20
21439;DHT22;10880;50.302;18.736;2022-08-01T14:01:29;27.20;59.90
21439;DHT22;10880;50.302;18.736;2022-08-01T14:03:56;27.20;60.20
21439;DHT22;10880;50.302;18.736;2022-08-01T14:06:26;27.20;60.40
21439;DHT22;10880;50.302;18.736;2022-08-01T14:08:52;27.20;60.00
21439;DHT22;10880;50.302;18.736;2022-08-01T14:11:21;27.30;59.70
21439;DHT22;10880;50.302;18.736;2022-08-01T14:13:52;27.30;60.60
21439;DHT22;10880;50.302;18.736;2022-08-01T14:16:19;27.30;60.10
21439;DHT22;10880;50.302;18.736;2022-08-01T14:18:46;27.30;59.80
21439;DHT22;10880;50.302;18.736;2022-08-01T14:21:13;27.30;59.90
21439;DHT22;10880;50.302;18.736;2022-08-01T14:23:41;27.30;59.80
21439;DHT22;10880;50.302;18.736;2022-08-01T14:26:14;27.30;58.30
21439;DHT22;10880;50.302;18.736;2022-08-01T14:28:42;27.40;60.50
21439;DHT22;10880;50.302;18.736;2022-08-01T14:31:09;27.40;60.30
21439;DHT22;10880;50.302;18.736;2022-08-01T14:33:39;27.40;60.00
21439;DHT22;10880;50.302;18.736;2022-08-01T14:36:06;27.40;59.80
21439;DHT22;10880;50.302;18.736;2022-08-01T14:38:33;27.40;59.70
21439;DHT22;10880;50.302;18.736;2022-08-01T14:41:01;27.40;60.10
21439;DHT22;10880;50.302;18.736;2022-08-01T14:43:30;27.40;60.10
21439;DHT22;10880;50.302;18.736;2022-08-01T14:45:59;27.40;60.00
21439;DHT22;10880;50.302;18.736;2022-08-01T14:48:28;27.40;60.10
21439;DHT22;10880;50.302;18.736;2022-08-01T14:50:55;27.40;59.80
21439;DHT22;10880;50.302;18.736;2022-08-01T14:53:22;27.40;59.70
21439;DHT22;10880;50.302;18.736;2022-08-01T14:55:52;27.40;59.40
21439;DHT22;10880;50.302;18.736;2022-08-01T14:58:21;27.40;59.70
21439;DHT22;10880;50.302;18.736;2022-08-01T15:00:48;27.40;59.80
21439;DHT22;10880;50.302;18.736;2022-08-01T15:03:21;27.40;59.40
21439;DHT22;10880;50.302;18.736;2022-08-01T15:05:49;27.40;59.30
21439;DHT22;10880;50.302;18.736;2022-08-01T15:08:17;27.40;59.80
21439;DHT22;10880;50.302;18.736;2022-08-01T15:10:43;27.40;59.40
21439;DHT22;10880;50.302;18.736;2022-08-01T15:13:10;27.40;59.60
21439;DHT22;10880;50.302;18.736;2022-08-01T15:15:37;27.40;59.30
21439;DHT22;10880;50.302;18.736;2022-08-01T15:18:03;27.40;59.40
21439;DHT22;10880;50.302;18.736;2022-08-01T15:20:32;27.40;59.50
21439;DHT22;10880;50.302;18.736;2022-08-01T15:23:02;27.50;59.40
21439;DHT22;10880;50.302;18.736;2022-08-01T15:25:34;27.50;59.40
21439;DHT22;10880;50.302;18.736;2022-08-01T15:28:01;27.50;59.80
21439;DHT22;10880;50.302;18.736;2022-08-01T15:30:36;27.50;59.20
21439;DHT22;10880;50.302;18.736;2022-08-01T15:33:04;27.50;59.20
21439;DHT22;10880;50.302;18.736;2022-08-01T15:35:30;27.50;59.70
21439;DHT22;10880;50.302;18.736;2022-08-01T15:37:58;27.50;59.70
21439;DHT22;10880;50.302;18.736;2022-08-01T15:40:26;27.50;59.10
21439;DHT22;10880;50.302;18.736;2022-08-01T15:42:55;27.50;59.50
21439;DHT22;10880;50.302;18.736;2022-08-01T15:45:22;27.50;59.40
21439;DHT22;10880;50.302;18.736;2022-08-01T15:47:48;27.50;59.20
21439;DHT22;10880;50.302;18.736;2022-08-01T15:50:15;27.50;59.20
21439;DHT22;10880;50.302;18.736;2022-08-01T15:52:43;27.50;59.10
21439;DHT22;10880;50.302;18.736;2022-08-01T15:55:09;27.50;59.10
21439;DHT22;10880;50.302;18.736;2022-08-01T15:57:37;27.50;59.20
21439;DHT22;10880;50.302;18.736;2022-08-01T16:00:04;27.50;59.10
21439;DHT22;10880;50.302;18.736;2022-08-01T16:02:38;27.50;59.40